Aérodrome :
LOGIN :

S'inscrire | Disclaimer

   EN    FR    IT 

 










Légende :    VFR   VFR Marginal   IFR   IFR Intensif   IFR Très Intensif
Visi : 
Plafond : 
>= 8 km
>= 3000ft
5 à 8 km
1000 à 3000 ft
1500m à 5 km
500 à 1000 ft
800 à 1500m
200 à 500 ft
< 800m
< 200 ft
Symboles :   Orages  Brouillard  Fortes neiges  Fortes précipitations  Vent > 20 kt
SIGMETs :   Divers  Orages  Givrage  Turbulence  Onde Orograph.  Cendres Volcan.






- Altitude de l'aérodrome : 93 ft
- Code IATA : XRY


LEJR - Jerez

DERNIER METAR :
  • 071200Z 24010KT CAVOK 32/21 Q1017

METARs EXPIRÉS :
  • 071130Z 22009KT 170V290 CAVOK 32/21 Q1017
  • 071100Z VRB06KT CAVOK 33/18 Q1016
  • 071030Z 15007KT 100V210 CAVOK 32/16 Q1017
  • 071000Z 14005KT 090V200 CAVOK 31/16 Q1017
  • 070930Z 13007KT 080V180 CAVOK 31/17 Q1017

TAF TAF LEJR
Valide du 07 à 12h jusqu'au 08 à 12h UTC


071100Z 0712/0812 17011KT CAVOK TX38/0715Z TN19/0806Z
BECMG 0720/0723 VRB02KT



MET'MAP, la Météo Aéronautique d'un coup d'oeil ! - Copyright ORBIFLY Décembre 2007 - Disclaimer

ORBIFLY MET'MAP TEAM :

Programmation & Développement : Alexandra Zaïnal
Sur une idée originale de : Baudouin d'Aumeries
Assistance à la programmation : Marc-Olivier Méhu
Soutien technique & logistique : Manuel Goepfert

Contact : metmap@orbifly.com




SOURCES & CREDITS :

   NOAA